This is the latest recevied weather packets stored in our database for station/object DK1ZX-10. If no packets are shown the sender has not sent any weather packets the latest 10 day(s).
| Time | Temp. | Humidity | Pressure | Rain* | Wind** | Luminosity | Snow |
|---|---|---|---|---|---|---|---|
| 1777565289 | 15° C | 18% | 1026.5 hPa | - | - | - | - |
| 1777564089 | 15.56° C | 19% | 1026.7 hPa | - | - | - | - |
| 1777562889 | 15.56° C | 18% | 1026.7 hPa | - | - | - | - |
| 1777561689 | 15.56° C | 18% | 1026.5 hPa | - | - | - | - |
| 1777560489 | 15.56° C | 18% | 1026.9 hPa | - | - | - | - |
| 1777559289 | 15.56° C | 18% | 1027.1 hPa | - | - | - | - |
| 1777558089 | 15.56° C | 18% | 1027.1 hPa | - | - | - | - |
| 1777556889 | 15.56° C | 18% | 1027.2 hPa | - | - | - | - |
| 1777555689 | 15° C | 19% | 1027.1 hPa | - | - | - | - |
| 1777554489 | 14.44° C | 19% | 1027.3 hPa | - | - | - | - |
| 1777553289 | 15° C | 19% | 1027.6 hPa | - | - | - | - |
| 1777552089 | 14.44° C | 20% | 1027.9 hPa | - | - | - | - |
| 1777550889 | 14.44° C | 20% | 1028 hPa | - | - | - | - |
| 1777549689 | 14.44° C | 20% | 1028.2 hPa | - | - | - | - |
| 1777548489 | 15° C | 19% | 1028.3 hPa | - | - | - | - |
| 1777547288 | 19.44° C | 16% | 1028.4 hPa | - | - | - | - |
| 1777546088 | 19.44° C | 15% | 1028.6 hPa | - | - | - | - |
| 1777544888 | 18.89° C | 15% | 1029 hPa | - | - | - | - |
| 1777543688 | 19.44° C | 14% | 1029.1 hPa | - | - | - | - |
| 1777542488 | 22.22° C | 13% | 1029.1 hPa | - | - | - | - |
| 1777541288 | 26.11° C | 9% | 1029.1 hPa | - | - | - | - |
| 1777540088 | 31.11° C | 7% | 1029.3 hPa | - | - | - | - |
| 1777538888 | 28.89° C | 8% | 1029.5 hPa | - | - | - | - |
| 1777537688 | 30.56° C | 7% | 1029.5 hPa | - | - | - | - |
| 1777536488 | 27.22° C | 9% | 1029.6 hPa | - | - | - | - |
* Rain since midnight (hover to see other rain measurements)
** Current wind speed in m/s (hover to see current wind gust speed)